sensor_id;sensor_type;location;lat;lon;timestamp;temperature;humidity
24636;DHT22;12772;49.794;10.024;2023-02-21T00:04:08;11.00;47.30
24636;DHT22;12772;49.794;10.024;2023-02-21T00:08:28;11.00;47.40
24636;DHT22;12772;49.794;10.024;2023-02-21T00:12:48;10.70;47.10
24636;DHT22;12772;49.794;10.024;2023-02-21T00:17:07;10.60;46.90
24636;DHT22;12772;49.794;10.024;2023-02-21T00:21:28;10.90;47.20
24636;DHT22;12772;49.794;10.024;2023-02-21T00:25:47;10.50;46.80
24636;DHT22;12772;49.794;10.024;2023-02-21T00:30:07;10.50;46.90
24636;DHT22;12772;49.794;10.024;2023-02-21T00:34:27;10.90;47.30
24636;DHT22;12772;49.794;10.024;2023-02-21T00:38:46;10.90;47.20
24636;DHT22;12772;49.794;10.024;2023-02-21T00:43:06;10.30;46.90
24636;DHT22;12772;49.794;10.024;2023-02-21T00:47:25;10.30;46.80
24636;DHT22;12772;49.794;10.024;2023-02-21T00:51:45;10.10;46.80
24636;DHT22;12772;49.794;10.024;2023-02-21T00:56:05;10.60;47.50
24636;DHT22;12772;49.794;10.024;2023-02-21T01:00:25;9.90;48.00
24636;DHT22;12772;49.794;10.024;2023-02-21T01:04:44;10.00;47.00
24636;DHT22;12772;49.794;10.024;2023-02-21T01:09:04;10.20;47.30
24636;DHT22;12772;49.794;10.024;2023-02-21T01:13:23;10.20;47.40
24636;DHT22;12772;49.794;10.024;2023-02-21T01:17:43;9.70;48.10
24636;DHT22;12772;49.794;10.024;2023-02-21T01:22:03;9.90;48.50
24636;DHT22;12772;49.794;10.024;2023-02-21T01:26:23;9.80;48.50
24636;DHT22;12772;49.794;10.024;2023-02-21T01:30:43;9.90;48.70
24636;DHT22;12772;49.794;10.024;2023-02-21T01:35:03;9.70;48.70
24636;DHT22;12772;49.794;10.024;2023-02-21T01:39:23;9.90;49.00
24636;DHT22;12772;49.794;10.024;2023-02-21T01:44:03;9.60;48.80
24636;DHT22;12772;49.794;10.024;2023-02-21T01:48:24;9.70;48.90
24636;DHT22;12772;49.794;10.024;2023-02-21T01:52:45;9.20;48.30
24636;DHT22;12772;49.794;10.024;2023-02-21T01:57:06;9.40;48.70
24636;DHT22;12772;49.794;10.024;2023-02-21T02:01:39;9.10;48.40
24636;DHT22;12772;49.794;10.024;2023-02-21T02:06:07;9.40;49.00
24636;DHT22;12772;49.794;10.024;2023-02-21T02:10:26;8.90;48.70
24636;DHT22;12772;49.794;10.024;2023-02-21T02:28:40;9.20;50.80
24636;DHT22;12772;49.794;10.024;2023-02-21T02:37:30;9.10;50.70
24636;DHT22;12772;49.794;10.024;2023-02-21T02:46:22;9.40;51.70
24636;DHT22;12772;49.794;10.024;2023-02-21T02:50:16;9.30;51.90
24636;DHT22;12772;49.794;10.024;2023-02-21T02:54:18;8.80;51.60
24636;DHT22;12772;49.794;10.024;2023-02-21T02:58:21;8.90;51.80
24636;DHT22;12772;49.794;10.024;2023-02-21T03:02:45;8.90;51.70
24636;DHT22;12772;49.794;10.024;2023-02-21T03:11:23;9.50;52.60
24636;DHT22;12772;49.794;10.024;2023-02-21T03:15:51;9.10;52.30
24636;DHT22;12772;49.794;10.024;2023-02-21T03:19:54;9.80;53.10
24636;DHT22;12772;49.794;10.024;2023-02-21T03:24:01;9.60;53.00
24636;DHT22;12772;49.794;10.024;2023-02-21T03:28:04;9.60;53.00
24636;DHT22;12772;49.794;10.024;2023-02-21T03:36:11;9.70;53.10
24636;DHT22;12772;49.794;10.024;2023-02-21T03:40:32;9.50;52.80
24636;DHT22;12772;49.794;10.024;2023-02-21T03:44:35;9.50;52.70
24636;DHT22;12772;49.794;10.024;2023-02-21T03:48:37;9.30;52.50
24636;DHT22;12772;49.794;10.024;2023-02-21T03:52:39;9.40;52.70
24636;DHT22;12772;49.794;10.024;2023-02-21T03:56:41;10.00;52.20
24636;DHT22;12772;49.794;10.024;2023-02-21T04:00:43;9.50;52.90
24636;DHT22;12772;49.794;10.024;2023-02-21T04:04:45;9.80;53.40
24636;DHT22;12772;49.794;10.024;2023-02-21T04:08:48;9.50;53.00
24636;DHT22;12772;49.794;10.024;2023-02-21T04:12:50;9.80;53.30
24636;DHT22;12772;49.794;10.024;2023-02-21T04:16:52;9.80;53.30
24636;DHT22;12772;49.794;10.024;2023-02-21T04:20:54;9.40;52.70
24636;DHT22;12772;49.794;10.024;2023-02-21T04:24:56;9.80;53.10
24636;DHT22;12772;49.794;10.024;2023-02-21T04:28:58;9.80;52.90
24636;DHT22;12772;49.794;10.024;2023-02-21T04:33:00;10.00;51.80
24636;DHT22;12772;49.794;10.024;2023-02-21T04:37:03;9.70;52.70
24636;DHT22;12772;49.794;10.024;2023-02-21T04:41:05;9.70;52.80
24636;DHT22;12772;49.794;10.024;2023-02-21T04:45:07;9.40;52.60
24636;DHT22;12772;49.794;10.024;2023-02-21T04:49:11;9.60;53.00
24636;DHT22;12772;49.794;10.024;2023-02-21T04:53:14;9.50;53.00
24636;DHT22;12772;49.794;10.024;2023-02-21T04:57:16;9.50;52.90
24636;DHT22;12772;49.794;10.024;2023-02-21T05:01:19;9.00;52.40
24636;DHT22;12772;49.794;10.024;2023-02-21T05:05:21;9.00;52.50
24636;DHT22;12772;49.794;10.024;2023-02-21T05:09:23;9.00;52.60
24636;DHT22;12772;49.794;10.024;2023-02-21T05:13:25;9.40;53.00
24636;DHT22;12772;49.794;10.024;2023-02-21T05:17:27;9.50;53.10
24636;DHT22;12772;49.794;10.024;2023-02-21T05:21:33;9.30;52.90
24636;DHT22;12772;49.794;10.024;2023-02-21T05:25:37;8.80;52.50
24636;DHT22;12772;49.794;10.024;2023-02-21T05:29:39;9.30;53.10
24636;DHT22;12772;49.794;10.024;2023-02-21T05:33:41;9.20;53.00
24636;DHT22;12772;49.794;10.024;2023-02-21T05:37:43;8.80;52.70
24636;DHT22;12772;49.794;10.024;2023-02-21T05:41:49;8.90;53.00
24636;DHT22;12772;49.794;10.024;2023-02-21T05:45:51;9.20;53.60
24636;DHT22;12772;49.794;10.024;2023-02-21T05:49:53;8.80;53.30
24636;DHT22;12772;49.794;10.024;2023-02-21T05:53:55;9.40;54.20
24636;DHT22;12772;49.794;10.024;2023-02-21T05:57:57;9.20;54.00
24636;DHT22;12772;49.794;10.024;2023-02-21T06:01:59;8.90;53.90
24636;DHT22;12772;49.794;10.024;2023-02-21T06:06:01;9.10;54.10
24636;DHT22;12772;49.794;10.024;2023-02-21T06:10:04;9.30;54.40
24636;DHT22;12772;49.794;10.024;2023-02-21T06:14:12;9.50;54.70
24636;DHT22;12772;49.794;10.024;2023-02-21T06:18:15;9.30;54.60
24636;DHT22;12772;49.794;10.024;2023-02-21T06:22:17;9.20;54.60
24636;DHT22;12772;49.794;10.024;2023-02-21T06:26:20;9.20;54.70
24636;DHT22;12772;49.794;10.024;2023-02-21T06:30:22;9.20;54.70
24636;DHT22;12772;49.794;10.024;2023-02-21T06:34:26;9.00;54.30
24636;DHT22;12772;49.794;10.024;2023-02-21T06:38:28;9.40;54.60
24636;DHT22;12772;49.794;10.024;2023-02-21T06:42:30;8.70;53.80
24636;DHT22;12772;49.794;10.024;2023-02-21T06:46:32;9.20;54.30
24636;DHT22;12772;49.794;10.024;2023-02-21T06:50:36;8.80;53.90
24636;DHT22;12772;49.794;10.024;2023-02-21T06:54:38;8.90;53.90
24636;DHT22;12772;49.794;10.024;2023-02-21T06:58:40;8.80;53.80
24636;DHT22;12772;49.794;10.024;2023-02-21T07:02:42;9.20;54.10
24636;DHT22;12772;49.794;10.024;2023-02-21T07:06:45;9.20;54.30
24636;DHT22;12772;49.794;10.024;2023-02-21T07:10:47;9.00;54.10
24636;DHT22;12772;49.794;10.024;2023-02-21T07:14:49;9.30;54.50
24636;DHT22;12772;49.794;10.024;2023-02-21T07:18:51;8.70;53.90
24636;DHT22;12772;49.794;10.024;2023-02-21T07:22:54;8.70;54.00
24636;DHT22;12772;49.794;10.024;2023-02-21T07:26:56;9.40;54.90
24636;DHT22;12772;49.794;10.024;2023-02-21T07:30:58;9.30;54.90
24636;DHT22;12772;49.794;10.024;2023-02-21T07:35:00;8.90;54.70
24636;DHT22;12772;49.794;10.024;2023-02-21T07:39:02;9.30;55.20
24636;DHT22;12772;49.794;10.024;2023-02-21T07:43:04;9.40;55.50
24636;DHT22;12772;49.794;10.024;2023-02-21T07:47:06;9.40;55.60
24636;DHT22;12772;49.794;10.024;2023-02-21T07:51:10;9.40;55.70
24636;DHT22;12772;49.794;10.024;2023-02-21T07:55:13;9.50;55.80
24636;DHT22;12772;49.794;10.024;2023-02-21T07:59:15;9.60;55.80
24636;DHT22;12772;49.794;10.024;2023-02-21T08:03:17;9.70;56.50
24636;DHT22;12772;49.794;10.024;2023-02-21T08:07:19;9.80;56.00
24636;DHT22;12772;49.794;10.024;2023-02-21T08:11:21;9.80;55.80
24636;DHT22;12772;49.794;10.024;2023-02-21T08:15:23;9.70;55.70
24636;DHT22;12772;49.794;10.024;2023-02-21T08:19:25;10.10;54.90
24636;DHT22;12772;49.794;10.024;2023-02-21T08:23:27;10.20;54.80
24636;DHT22;12772;49.794;10.024;2023-02-21T08:27:29;9.80;55.50
24636;DHT22;12772;49.794;10.024;2023-02-21T08:31:39;9.90;55.40
24636;DHT22;12772;49.794;10.024;2023-02-21T08:35:41;10.50;54.40
24636;DHT22;12772;49.794;10.024;2023-02-21T08:39:51;10.50;54.20
24636;DHT22;12772;49.794;10.024;2023-02-21T08:43:53;10.80;54.40
24636;DHT22;12772;49.794;10.024;2023-02-21T08:47:56;10.70;54.00
24636;DHT22;12772;49.794;10.024;2023-02-21T08:51:58;11.00;54.10
24636;DHT22;12772;49.794;10.024;2023-02-21T08:56:00;10.90;53.70
24636;DHT22;12772;49.794;10.024;2023-02-21T09:00:03;11.00;53.30
24636;DHT22;12772;49.794;10.024;2023-02-21T09:04:06;11.00;53.00
24636;DHT22;12772;49.794;10.024;2023-02-21T09:08:08;11.10;52.90
24636;DHT22;12772;49.794;10.024;2023-02-21T09:12:11;10.90;52.50
24636;DHT22;12772;49.794;10.024;2023-02-21T09:16:13;11.20;52.80
24636;DHT22;12772;49.794;10.024;2023-02-21T09:20:18;11.00;52.20
24636;DHT22;12772;49.794;10.024;2023-02-21T09:24:22;11.30;52.30
24636;DHT22;12772;49.794;10.024;2023-02-21T09:28:25;11.40;52.40
24636;DHT22;12772;49.794;10.024;2023-02-21T09:32:29;11.50;52.20
24636;DHT22;12772;49.794;10.024;2023-02-21T09:36:34;11.20;51.80
24636;DHT22;12772;49.794;10.024;2023-02-21T09:40:53;11.40;51.60
24636;DHT22;12772;49.794;10.024;2023-02-21T09:44:57;11.80;52.00
24636;DHT22;12772;49.794;10.024;2023-02-21T09:49:02;11.60;51.50
24636;DHT22;12772;49.794;10.024;2023-02-21T09:53:05;12.00;51.80
24636;DHT22;12772;49.794;10.024;2023-02-21T09:57:14;12.00;51.60
24636;DHT22;12772;49.794;10.024;2023-02-21T10:23:39;12.70;51.90
24636;DHT22;12772;49.794;10.024;2023-02-21T10:27:43;12.80;51.60
24636;DHT22;12772;49.794;10.024;2023-02-21T10:31:46;12.90;51.60
24636;DHT22;12772;49.794;10.024;2023-02-21T10:35:49;13.00;51.70
24636;DHT22;12772;49.794;10.024;2023-02-21T10:40:02;13.20;51.60
24636;DHT22;12772;49.794;10.024;2023-02-21T10:44:16;13.30;51.40
24636;DHT22;12772;49.794;10.024;2023-02-21T10:48:24;13.50;51.20
24636;DHT22;12772;49.794;10.024;2023-02-21T10:52:36;13.50;51.00
24636;DHT22;12772;49.794;10.024;2023-02-21T10:56:38;13.70;51.10
24636;DHT22;12772;49.794;10.024;2023-02-21T11:00:43;13.80;51.10
24636;DHT22;12772;49.794;10.024;2023-02-21T11:04:47;13.90;51.00
24636;DHT22;12772;49.794;10.024;2023-02-21T11:08:49;14.00;50.80
24636;DHT22;12772;49.794;10.024;2023-02-21T11:13:21;14.10;50.90
24636;DHT22;12772;49.794;10.024;2023-02-21T11:17:28;14.10;50.70
24636;DHT22;12772;49.794;10.024;2023-02-21T11:21:33;14.20;50.80
24636;DHT22;12772;49.794;10.024;2023-02-21T11:25:39;14.20;50.80
24636;DHT22;12772;49.794;10.024;2023-02-21T11:29:47;14.30;51.00
24636;DHT22;12772;49.794;10.024;2023-02-21T11:33:55;14.30;51.10
24636;DHT22;12772;49.794;10.024;2023-02-21T11:38:01;14.40;51.30
24636;DHT22;12772;49.794;10.024;2023-02-21T11:42:29;14.50;51.30
24636;DHT22;12772;49.794;10.024;2023-02-21T11:50:42;14.70;51.20
24636;DHT22;12772;49.794;10.024;2023-02-21T11:54:46;14.70;51.40
24636;DHT22;12772;49.794;10.024;2023-02-21T11:59:00;14.80;51.70
24636;DHT22;12772;49.794;10.024;2023-02-21T12:30:16;15.00;52.20
24636;DHT22;12772;49.794;10.024;2023-02-21T12:47:27;15.40;51.30
24636;DHT22;12772;49.794;10.024;2023-02-21T12:51:36;15.50;51.10
24636;DHT22;12772;49.794;10.024;2023-02-21T12:55:44;15.60;50.60
24636;DHT22;12772;49.794;10.024;2023-02-21T13:04:23;16.00;50.50
24636;DHT22;12772;49.794;10.024;2023-02-21T13:13:12;16.20;50.80
24636;DHT22;12772;49.794;10.024;2023-02-21T13:17:16;16.20;50.30
24636;DHT22;12772;49.794;10.024;2023-02-21T13:26:13;16.30;50.00
24636;DHT22;12772;49.794;10.024;2023-02-21T13:30:26;16.20;50.00
24636;DHT22;12772;49.794;10.024;2023-02-21T13:34:36;16.20;49.90
24636;DHT22;12772;49.794;10.024;2023-02-21T13:38:39;16.10;50.20
24636;DHT22;12772;49.794;10.024;2023-02-21T13:42:41;16.10;50.00
24636;DHT22;12772;49.794;10.024;2023-02-21T13:50:48;16.20;50.50
24636;DHT22;12772;49.794;10.024;2023-02-21T14:07:46;16.60;48.60
24636;DHT22;12772;49.794;10.024;2023-02-21T14:11:51;16.70;48.40
24636;DHT22;12772;49.794;10.024;2023-02-21T14:15:59;16.80;47.40
24636;DHT22;12772;49.794;10.024;2023-02-21T14:20:15;16.90;47.10
24636;DHT22;12772;49.794;10.024;2023-02-21T14:24:22;17.00;46.80
24636;DHT22;12772;49.794;10.024;2023-02-21T14:28:59;17.00;46.20
24636;DHT22;12772;49.794;10.024;2023-02-21T14:33:24;17.10;46.20
24636;DHT22;12772;49.794;10.024;2023-02-21T14:55:16;17.20;45.10
24636;DHT22;12772;49.794;10.024;2023-02-21T14:59:58;17.20;45.10
24636;DHT22;12772;49.794;10.024;2023-02-21T15:04:22;17.10;44.90
24636;DHT22;12772;49.794;10.024;2023-02-21T15:08:27;17.10;44.80
24636;DHT22;12772;49.794;10.024;2023-02-21T15:12:29;17.00;44.70
24636;DHT22;12772;49.794;10.024;2023-02-21T15:16:31;17.00;44.60
24636;DHT22;12772;49.794;10.024;2023-02-21T15:20:36;16.90;44.50
24636;DHT22;12772;49.794;10.024;2023-02-21T15:24:38;16.90;44.60
24636;DHT22;12772;49.794;10.024;2023-02-21T15:28:40;16.90;44.70
24636;DHT22;12772;49.794;10.024;2023-02-21T15:32:43;17.00;44.90
24636;DHT22;12772;49.794;10.024;2023-02-21T15:36:49;16.90;44.70
24636;DHT22;12772;49.794;10.024;2023-02-21T15:40:54;16.90;44.70
24636;DHT22;12772;49.794;10.024;2023-02-21T15:45:04;16.90;44.70
24636;DHT22;12772;49.794;10.024;2023-02-21T15:49:18;16.80;45.10
24636;DHT22;12772;49.794;10.024;2023-02-21T15:53:23;16.80;45.60
24636;DHT22;12772;49.794;10.024;2023-02-21T15:57:27;16.70;45.90
24636;DHT22;12772;49.794;10.024;2023-02-21T16:01:29;16.70;46.20
24636;DHT22;12772;49.794;10.024;2023-02-21T16:05:31;16.60;46.40
24636;DHT22;12772;49.794;10.024;2023-02-21T16:09:35;16.50;46.80
24636;DHT22;12772;49.794;10.024;2023-02-21T16:13:38;16.40;47.30
24636;DHT22;12772;49.794;10.024;2023-02-21T16:17:41;16.30;47.60
24636;DHT22;12772;49.794;10.024;2023-02-21T16:21:44;16.20;48.20
24636;DHT22;12772;49.794;10.024;2023-02-21T16:30:18;16.00;49.00
24636;DHT22;12772;49.794;10.024;2023-02-21T16:34:20;15.90;49.70
24636;DHT22;12772;49.794;10.024;2023-02-21T16:38:23;15.80;50.30
24636;DHT22;12772;49.794;10.024;2023-02-21T16:42:26;15.70;50.20
24636;DHT22;12772;49.794;10.024;2023-02-21T16:46:28;15.60;50.10
24636;DHT22;12772;49.794;10.024;2023-02-21T16:50:35;15.60;50.10
24636;DHT22;12772;49.794;10.024;2023-02-21T16:54:37;15.50;50.00
24636;DHT22;12772;49.794;10.024;2023-02-21T16:58:42;15.40;49.80
24636;DHT22;12772;49.794;10.024;2023-02-21T17:02:45;15.40;49.90
24636;DHT22;12772;49.794;10.024;2023-02-21T17:06:52;15.30;49.70
24636;DHT22;12772;49.794;10.024;2023-02-21T17:10:56;15.20;49.90
24636;DHT22;12772;49.794;10.024;2023-02-21T17:14:58;15.10;50.50
24636;DHT22;12772;49.794;10.024;2023-02-21T17:19:00;15.00;50.70
24636;DHT22;12772;49.794;10.024;2023-02-21T17:23:02;14.80;51.00
24636;DHT22;12772;49.794;10.024;2023-02-21T17:27:04;14.70;51.20
24636;DHT22;12772;49.794;10.024;2023-02-21T17:31:06;14.60;51.40
24636;DHT22;12772;49.794;10.024;2023-02-21T17:35:08;14.50;51.50
24636;DHT22;12772;49.794;10.024;2023-02-21T17:39:15;14.40;51.70
24636;DHT22;12772;49.794;10.024;2023-02-21T17:43:18;14.40;51.90
24636;DHT22;12772;49.794;10.024;2023-02-21T17:47:21;14.30;52.00
24636;DHT22;12772;49.794;10.024;2023-02-21T17:51:24;14.20;52.00
24636;DHT22;12772;49.794;10.024;2023-02-21T17:55:27;14.10;52.10
24636;DHT22;12772;49.794;10.024;2023-02-21T17:59:29;14.00;52.20
24636;DHT22;12772;49.794;10.024;2023-02-21T18:03:31;13.80;52.20
24636;DHT22;12772;49.794;10.024;2023-02-21T18:07:34;13.70;52.30
24636;DHT22;12772;49.794;10.024;2023-02-21T18:11:36;13.60;52.50
24636;DHT22;12772;49.794;10.024;2023-02-21T18:15:38;13.50;53.40
24636;DHT22;12772;49.794;10.024;2023-02-21T18:19:40;13.40;53.00
24636;DHT22;12772;49.794;10.024;2023-02-21T18:23:45;13.40;53.20
24636;DHT22;12772;49.794;10.024;2023-02-21T18:27:47;13.30;53.20
24636;DHT22;12772;49.794;10.024;2023-02-21T18:31:51;13.20;53.30
24636;DHT22;12772;49.794;10.024;2023-02-21T18:35:54;13.20;53.60
24636;DHT22;12772;49.794;10.024;2023-02-21T18:39:56;13.10;53.90
24636;DHT22;12772;49.794;10.024;2023-02-21T18:43:59;13.10;54.10
24636;DHT22;12772;49.794;10.024;2023-02-21T18:48:01;13.00;54.10
24636;DHT22;12772;49.794;10.024;2023-02-21T18:52:05;12.90;54.20
24636;DHT22;12772;49.794;10.024;2023-02-21T18:56:09;12.90;54.30
24636;DHT22;12772;49.794;10.024;2023-02-21T19:00:15;12.90;54.40
24636;DHT22;12772;49.794;10.024;2023-02-21T19:04:18;12.80;54.30
24636;DHT22;12772;49.794;10.024;2023-02-21T19:08:20;12.80;54.50
24636;DHT22;12772;49.794;10.024;2023-02-21T19:12:22;12.70;54.60
24636;DHT22;12772;49.794;10.024;2023-02-21T19:16:24;12.60;54.50
24636;DHT22;12772;49.794;10.024;2023-02-21T19:20:26;12.60;54.60
24636;DHT22;12772;49.794;10.024;2023-02-21T19:24:28;12.60;54.60
24636;DHT22;12772;49.794;10.024;2023-02-21T19:28:31;12.20;54.10
24636;DHT22;12772;49.794;10.024;2023-02-21T19:32:33;12.00;54.00
24636;DHT22;12772;49.794;10.024;2023-02-21T19:36:36;12.60;54.70
24636;DHT22;12772;49.794;10.024;2023-02-21T19:40:39;12.40;54.50
24636;DHT22;12772;49.794;10.024;2023-02-21T19:44:41;12.30;54.30
24636;DHT22;12772;49.794;10.024;2023-02-21T19:48:43;12.30;54.40
24636;DHT22;12772;49.794;10.024;2023-02-21T19:52:51;12.30;54.40
24636;DHT22;12772;49.794;10.024;2023-02-21T19:56:54;12.30;54.40
24636;DHT22;12772;49.794;10.024;2023-02-21T20:00:57;12.20;54.20
24636;DHT22;12772;49.794;10.024;2023-02-21T20:04:59;12.20;54.20
24636;DHT22;12772;49.794;10.024;2023-02-21T20:09:03;11.90;53.70
24636;DHT22;12772;49.794;10.024;2023-02-21T20:13:05;12.10;54.00
24636;DHT22;12772;49.794;10.024;2023-02-21T20:17:07;12.00;53.90
24636;DHT22;12772;49.794;10.024;2023-02-21T20:21:16;12.00;54.60
24636;DHT22;12772;49.794;10.024;2023-02-21T20:25:18;12.00;53.90
24636;DHT22;12772;49.794;10.024;2023-02-21T20:29:21;11.80;53.70
24636;DHT22;12772;49.794;10.024;2023-02-21T20:33:25;11.80;53.90
24636;DHT22;12772;49.794;10.024;2023-02-21T20:37:27;11.70;54.00
24636;DHT22;12772;49.794;10.024;2023-02-21T20:41:34;11.30;53.70
24636;DHT22;12772;49.794;10.024;2023-02-21T20:45:38;11.30;53.80
24636;DHT22;12772;49.794;10.024;2023-02-21T20:49:44;11.50;54.10
24636;DHT22;12772;49.794;10.024;2023-02-21T20:53:46;11.20;54.20
24636;DHT22;12772;49.794;10.024;2023-02-21T20:57:49;11.10;54.30
24636;DHT22;12772;49.794;10.024;2023-02-21T21:01:51;11.40;54.80
24636;DHT22;12772;49.794;10.024;2023-02-21T21:05:54;11.00;54.50
24636;DHT22;12772;49.794;10.024;2023-02-21T21:09:56;11.10;54.70
24636;DHT22;12772;49.794;10.024;2023-02-21T21:13:58;11.30;54.90
24636;DHT22;12772;49.794;10.024;2023-02-21T21:18:00;10.80;54.10
24636;DHT22;12772;49.794;10.024;2023-02-21T21:22:07;11.20;54.40
24636;DHT22;12772;49.794;10.024;2023-02-21T21:26:09;11.20;54.40
24636;DHT22;12772;49.794;10.024;2023-02-21T21:30:13;10.90;54.00
24636;DHT22;12772;49.794;10.024;2023-02-21T21:34:21;11.00;54.00
24636;DHT22;12772;49.794;10.024;2023-02-21T21:38:25;11.00;54.00
24636;DHT22;12772;49.794;10.024;2023-02-21T21:42:28;10.60;53.60
24636;DHT22;12772;49.794;10.024;2023-02-21T21:46:30;10.90;53.90
24636;DHT22;12772;49.794;10.024;2023-02-21T21:50:32;10.50;53.50
24636;DHT22;12772;49.794;10.024;2023-02-21T21:54:34;10.60;54.30
24636;DHT22;12772;49.794;10.024;2023-02-21T21:58:37;10.70;53.70
24636;DHT22;12772;49.794;10.024;2023-02-21T22:02:39;10.70;53.70
24636;DHT22;12772;49.794;10.024;2023-02-21T22:06:42;10.60;53.70
24636;DHT22;12772;49.794;10.024;2023-02-21T22:10:45;10.70;53.80
24636;DHT22;12772;49.794;10.024;2023-02-21T22:14:48;10.70;53.70
24636;DHT22;12772;49.794;10.024;2023-02-21T22:18:53;10.50;53.30
24636;DHT22;12772;49.794;10.024;2023-02-21T22:22:55;10.10;53.10
24636;DHT22;12772;49.794;10.024;2023-02-21T22:26:58;9.90;54.10
24636;DHT22;12772;49.794;10.024;2023-02-21T22:31:00;9.80;54.00
24636;DHT22;12772;49.794;10.024;2023-02-21T22:35:02;9.60;54.20
24636;DHT22;12772;49.794;10.024;2023-02-21T22:39:04;10.00;53.70
24636;DHT22;12772;49.794;10.024;2023-02-21T22:43:10;10.20;53.90
24636;DHT22;12772;49.794;10.024;2023-02-21T22:47:13;10.20;53.80
24636;DHT22;12772;49.794;10.024;2023-02-21T22:51:17;9.60;54.50
24636;DHT22;12772;49.794;10.024;2023-02-21T22:55:20;9.90;54.80
24636;DHT22;12772;49.794;10.024;2023-02-21T22:59:24;10.00;53.70
24636;DHT22;12772;49.794;10.024;2023-02-21T23:03:26;9.90;54.90
24636;DHT22;12772;49.794;10.024;2023-02-21T23:07:31;9.60;54.90
24636;DHT22;12772;49.794;10.024;2023-02-21T23:11:33;9.40;54.90
24636;DHT22;12772;49.794;10.024;2023-02-21T23:15:35;9.70;55.50
24636;DHT22;12772;49.794;10.024;2023-02-21T23:19:38;9.70;55.70
24636;DHT22;12772;49.794;10.024;2023-02-21T23:23:40;9.70;55.70
24636;DHT22;12772;49.794;10.024;2023-02-21T23:27:42;9.70;55.90
24636;DHT22;12772;49.794;10.024;2023-02-21T23:31:45;9.10;55.20
24636;DHT22;12772;49.794;10.024;2023-02-21T23:35:49;9.60;55.70
24636;DHT22;12772;49.794;10.024;2023-02-21T23:39:52;9.30;55.30
24636;DHT22;12772;49.794;10.024;2023-02-21T23:43:54;9.50;55.30
24636;DHT22;12772;49.794;10.024;2023-02-21T23:47:58;9.50;55.00
24636;DHT22;12772;49.794;10.024;2023-02-21T23:52:00;9.40;55.00
24636;DHT22;12772;49.794;10.024;2023-02-21T23:56:02;8.90;54.50
